Sirri Island Airport

Airport
ICAO code: 
OIBS
IATA Code: 
SXI
Summary
ICAO Region: 
APAC
Territory: 
Location: 
Sirri Island, Hormozgan
Serving: 
Sirri Island
Elevation: 
43 ft
Coordinates: 
Aerial View: 
25° 54' 9.107" N, 54° 32' 45.327" E
Metar
Observation
OIBS 030800Z 08006KT 3500 HZ NSC 34/29 Q0993
Station
Sirri Island / Sirri
Date/Time
2022-07-03 08:00:00
Wind direction
80°
Wind speed
06 kts
Lowest cloud amount
nil significant cloud
Temperature
34°C
Dew point
29°C
Humidity
75%
QNH
993 hPa
Weather condition
n/a

Sirri Island Airport is an airport located in Sirri Island, Iran.

Runways

Designator Length Width Surface Rops
12/30 2544 53 ASP No/No
Airport map: 
Aerial View: 

SKYbrary Partners:

Safety knowledge contributed by: